Terminal Aerodrome Forecast
Issued by NWS

Home | Current Version | Previous Version | Graphics & Text | Print | Product List | Glossary On
Versions: 1 2 3 4 5 6 7 8 9 10 11 12 13 14 15 16 17 18 19 20
000
FTUS41 KCLE 280200 AAA
TAFFDY
TAF AMD
KFDY 280245Z 2803/2824 22010KT P6SM VCSH OVC008
     FM280300 26015KT 4SM -SHRA BR SCT020 OVC035
      TEMPO 2803/2806 OVC020
     FM280600 28012KT P6SM OVC018
     FM281600 31010KT P6SM OVC025
     FM282200 30010KT P6SM BKN250=

USA.gov is the U.S. government's official web portal to all federal, state and local government web resources and services.